Time;durP1;ratioP1;P1;durP2;ratioP2;P2;SDS_P1;SDS_P2;PMS_P1;PMS_P2;Temp;Humidity;BMP_temperature;BMP_pressure;BME280_temperature;BME280_humidity;BME280_pressure;Samples;Min_cycle;Max_cycle;Signal;HPM_P1;HPM_P2
2021/06/14 00:01:05;;;;;;;9.77;4.10;;;;;;;;;;4912149;28;20155;-58
2021/06/14 00:03:32;;;;;;;10.18;4.75;;;;;;;;;;4942622;28;20038;-58
2021/06/14 00:06:01;;;;;;;8.43;4.53;;;;;;;;;;4945795;28;20050;-58
2021/06/14 00:08:27;;;;;;;9.90;4.43;;;;;;;;;;4945067;28;22154;-57
2021/06/14 00:10:55;;;;;;;8.52;4.20;;;;;;;;;;4944386;28;20034;-59
2021/06/14 00:13:24;;;;;;;9.90;4.32;;;;;;;;;;4943613;28;20026;-59
2021/06/14 00:15:50;;;;;;;6.75;3.97;;;;;;;;;;4945471;28;20146;-58
2021/06/14 00:18:18;;;;;;;14.55;4.70;;;;;;;;;;4941872;28;20038;-59
2021/06/14 00:20:51;;;;;;;12.55;4.03;;;;;;;;;;4927171;28;20027;-58
2021/06/14 00:23:17;;;;;;;8.35;4.15;;;;;;;;;;4933391;28;20470;-58
2021/06/14 00:25:45;;;;;;;6.53;3.65;;;;;;;;;;4943775;28;20031;-58
2021/06/14 00:28:11;;;;;;;11.18;4.05;;;;;;;;;;4932187;28;20031;-58
2021/06/14 00:30:40;;;;;;;7.32;3.97;;;;;;;;;;4943629;28;20664;-58
2021/06/14 00:33:11;;;;;;;13.90;3.78;;;;;;;;;;4942797;28;20102;-58
2021/06/14 00:35:37;;;;;;;12.82;5.10;;;;;;;;;;4943282;28;20089;-59
2021/06/14 00:38:03;;;;;;;11.70;4.50;;;;;;;;;;4926823;28;20685;-58
2021/06/14 00:40:35;;;;;;;10.07;4.35;;;;;;;;;;4944296;28;20087;-58
2021/06/14 00:43:04;;;;;;;11.32;4.30;;;;;;;;;;4930032;28;20788;-58
2021/06/14 00:45:31;;;;;;;9.65;4.05;;;;;;;;;;4948576;28;20123;-57
2021/06/14 00:48:01;;;;;;;13.80;4.43;;;;;;;;;;4947225;28;20597;-58
2021/06/14 00:50:32;;;;;;;15.65;3.88;;;;;;;;;;4946492;28;20038;-58
2021/06/14 00:53:00;;;;;;;9.52;3.80;;;;;;;;;;4948136;28;20069;-58
2021/06/14 00:55:25;;;;;;;11.10;3.55;;;;;;;;;;4945576;28;20034;-58
2021/06/14 00:57:53;;;;;;;8.23;4.10;;;;;;;;;;4931578;28;20126;-59
2021/06/14 01:00:22;;;;;;;14.23;4.18;;;;;;;;;;4946967;28;20033;-59
2021/06/14 01:02:48;;;;;;;10.90;3.63;;;;;;;;;;4939949;28;20027;-58
2021/06/14 01:05:14;;;;;;;10.27;3.78;;;;;;;;;;4948520;28;20031;-58
2021/06/14 01:07:40;;;;;;;8.23;3.70;;;;;;;;;;4946806;28;20098;-58
2021/06/14 01:10:06;;;;;;;13.65;5.00;;;;;;;;;;4947119;28;20475;-57
2021/06/14 01:12:37;;;;;;;12.05;3.75;;;;;;;;;;4936719;28;20043;-58
2021/06/14 01:15:14;;;;;;;10.90;4.25;;;;;;;;;;4919505;28;20079;-58
2021/06/14 01:17:59;;;;;;;18.48;4.65;;;;;;;;;;4934198;28;20038;-58
2021/06/14 01:20:45;;;;;;;10.55;3.67;;;;;;;;;;4947232;28;20055;-58
2021/06/14 01:23:29;;;;;;;7.95;3.35;;;;;;;;;;4930980;28;20057;-58
2021/06/14 01:25:58;;;;;;;10.23;3.70;;;;;;;;;;4948394;28;20090;-58
2021/06/14 01:28:27;;;;;;;7.05;3.45;;;;;;;;;;4927404;28;20804;-58
2021/06/14 01:30:53;;;;;;;12.95;3.85;;;;;;;;;;4930172;28;20066;-59
2021/06/14 01:33:25;;;;;;;8.45;3.17;;;;;;;;;;4944927;28;20039;-59
2021/06/14 01:35:53;;;;;;;8.77;3.20;;;;;;;;;;4948788;28;20062;-59
2021/06/14 01:38:21;;;;;;;13.00;3.13;;;;;;;;;;4946503;28;20467;-59
2021/06/14 01:40:48;;;;;;;6.40;3.45;;;;;;;;;;4946123;28;20037;-59
2021/06/14 01:43:15;;;;;;;8.55;3.15;;;;;;;;;;4946230;28;20557;-59
2021/06/14 01:45:42;;;;;;;11.57;3.72;;;;;;;;;;4947796;28;20102;-58
2021/06/14 01:48:09;;;;;;;8.95;3.63;;;;;;;;;;4946200;28;20070;-58
2021/06/14 01:50:37;;;;;;;9.95;3.33;;;;;;;;;;4945375;28;20039;-59
2021/06/14 01:53:03;;;;;;;8.20;3.53;;;;;;;;;;4929741;28;20049;-57
2021/06/14 01:55:34;;;;;;;6.57;3.75;;;;;;;;;;4945885;28;20043;-58
2021/06/14 01:58:02;;;;;;;9.75;3.72;;;;;;;;;;4945677;28;20034;-59
2021/06/14 02:00:29;;;;;;;8.68;3.20;;;;;;;;;;4946897;28;20039;-58
2021/06/14 02:02:55;;;;;;;6.82;2.88;;;;;;;;;;4918484;28;20041;-58
2021/06/14 02:05:24;;;;;;;5.25;3.33;;;;;;;;;;4946180;28;20046;-58
2021/06/14 02:07:52;;;;;;;8.07;3.42;;;;;;;;;;4926398;28;20142;-57
2021/06/14 02:10:19;;;;;;;7.40;3.25;;;;;;;;;;4946658;28;20135;-58
2021/06/14 02:12:47;;;;;;;7.88;3.25;;;;;;;;;;4926805;28;20066;-58
2021/06/14 02:15:16;;;;;;;5.90;3.13;;;;;;;;;;4930047;28;20031;-58
2021/06/14 02:17:42;;;;;;;7.88;2.72;;;;;;;;;;4946346;28;20467;-57
2021/06/14 02:20:13;;;;;;;6.75;2.97;;;;;;;;;;4946445;28;20140;-58
2021/06/14 02:22:42;;;;;;;4.78;3.25;;;;;;;;;;4944513;28;20691;-57
2021/06/14 02:25:09;;;;;;;4.25;2.97;;;;;;;;;;4945701;28;20042;-57
2021/06/14 02:27:37;;;;;;;4.93;3.05;;;;;;;;;;4934596;28;20037;-57
2021/06/14 02:30:13;;;;;;;6.47;2.90;;;;;;;;;;4944257;28;20031;-57
2021/06/14 02:32:39;;;;;;;8.15;3.05;;;;;;;;;;4945412;28;20046;-57
2021/06/14 02:35:10;;;;;;;6.00;2.95;;;;;;;;;;4944869;28;20038;-57
2021/06/14 02:37:43;;;;;;;6.78;3.72;;;;;;;;;;4944683;28;20378;-58
2021/06/14 02:40:11;;;;;;;12.23;3.40;;;;;;;;;;4928511;28;20156;-58
2021/06/14 02:42:37;;;;;;;6.57;3.53;;;;;;;;;;4943905;28;20439;-58
2021/06/14 02:45:04;;;;;;;6.20;3.20;;;;;;;;;;4945408;28;20039;-58
2021/06/14 02:47:30;;;;;;;8.30;3.00;;;;;;;;;;4943951;28;20124;-58
2021/06/14 02:49:59;;;;;;;7.32;3.60;;;;;;;;;;4945393;28;20158;-58
2021/06/14 02:52:25;;;;;;;6.95;2.75;;;;;;;;;;4943827;28;20031;-58
2021/06/14 02:54:56;;;;;;;8.63;3.38;;;;;;;;;;4943484;28;20121;-58
2021/06/14 02:57:23;;;;;;;8.02;3.00;;;;;;;;;;4945039;28;20035;-58
2021/06/14 02:59:55;;;;;;;7.53;3.17;;;;;;;;;;4927904;28;20184;-59
2021/06/14 03:02:24;;;;;;;6.50;3.80;;;;;;;;;;4935360;28;20066;-58
2021/06/14 03:04:49;;;;;;;11.00;3.55;;;;;;;;;;4945713;28;20069;-57
2021/06/14 03:07:15;;;;;;;8.23;3.65;;;;;;;;;;4926870;28;20042;-57
2021/06/14 03:09:59;;;;;;;9.98;3.00;;;;;;;;;;4943684;28;20126;-58
2021/06/14 03:12:27;;;;;;;16.98;3.58;;;;;;;;;;4943214;28;20043;-58
2021/06/14 03:14:57;;;;;;;9.38;3.50;;;;;;;;;;4942550;28;20034;-59
2021/06/14 03:17:23;;;;;;;4.78;3.00;;;;;;;;;;4944546;28;20039;-58
2021/06/14 03:19:50;;;;;;;8.18;2.90;;;;;;;;;;4945501;28;20053;-58
2021/06/14 03:22:18;;;;;;;9.05;3.95;;;;;;;;;;4947140;28;21627;-58
2021/06/14 03:24:46;;;;;;;9.20;3.70;;;;;;;;;;4945613;28;21043;-58
2021/06/14 03:27:20;;;;;;;6.15;3.20;;;;;;;;;;4928603;28;20860;-58
2021/06/14 03:29:52;;;;;;;11.30;4.25;;;;;;;;;;4943600;28;20038;-58
2021/06/14 03:32:20;;;;;;;6.95;3.47;;;;;;;;;;4945266;28;20039;-58
2021/06/14 03:34:49;;;;;;;11.70;3.85;;;;;;;;;;4945552;28;20725;-58
2021/06/14 03:40:49;;;;;;;5.47;3.28;;;;;;;;;;4947597;28;20041;-58
2021/06/14 03:43:15;;;;;;;8.93;3.38;;;;;;;;;;4943394;28;20406;-58
2021/06/14 03:45:42;;;;;;;9.43;3.55;;;;;;;;;;4945090;28;20030;-58
2021/06/14 03:48:10;;;;;;;10.20;3.83;;;;;;;;;;4941651;28;22102;-58
2021/06/14 03:51:08;;;;;;;8.57;3.30;;;;;;;;;;4943210;28;20434;-58
2021/06/14 03:53:39;;;;;;;5.50;3.63;;;;;;;;;;4942353;28;20170;-58
2021/06/14 03:56:11;;;;;;;8.57;3.20;;;;;;;;;;4945531;28;20030;-57
2021/06/14 04:02:11;;;;;;;7.20;3.50;;;;;;;;;;4943448;28;20041;-58
2021/06/14 04:05:04;;;;;;;11.57;4.30;;;;;;;;;;4945566;28;20039;-58
2021/06/14 04:07:42;;;;;;;7.45;3.67;;;;;;;;;;4943133;28;20035;-58
2021/06/14 04:10:11;;;;;;;9.30;4.10;;;;;;;;;;4944143;28;20766;-59
2021/06/14 04:12:37;;;;;;;9.55;3.80;;;;;;;;;;4943545;28;20387;-58
2021/06/14 04:15:03;;;;;;;7.93;3.67;;;;;;;;;;4945277;28;20041;-57
2021/06/14 04:21:06;;;;;;;10.57;3.92;;;;;;;;;;4944638;28;20061;-58
2021/06/14 04:23:42;;;;;;;12.32;3.58;;;;;;;;;;4941656;28;20631;-58
2021/06/14 04:29:16;;;;;;;9.85;4.93;;;;;;;;;;4927158;28;20039;-57
2021/06/14 04:35:17;;;;;;;10.85;3.90;;;;;;;;;;4944451;28;20862;-59
2021/06/14 04:41:20;;;;;;;8.18;3.72;;;;;;;;;;4942619;28;20042;-57
2021/06/14 04:43:46;;;;;;;8.98;3.88;;;;;;;;;;4941957;28;20035;-58
2021/06/14 04:46:12;;;;;;;11.75;4.00;;;;;;;;;;4942244;28;21121;-58
2021/06/14 04:48:40;;;;;;;7.78;2.95;;;;;;;;;;4940950;28;20055;-57
2021/06/14 04:51:20;;;;;;;9.95;3.50;;;;;;;;;;4943696;28;20031;-58
2021/06/14 04:53:50;;;;;;;4.45;3.08;;;;;;;;;;4944271;28;20167;-58
2021/06/14 04:59:54;;;;;;;9.95;3.42;;;;;;;;;;4944561;28;20057;-58
2021/06/14 05:02:19;;;;;;;5.05;3.17;;;;;;;;;;4926897;28;20082;-60
2021/06/14 05:08:21;;;;;;;6.15;3.10;;;;;;;;;;4943957;28;20057;-60
2021/06/14 05:10:48;;;;;;;4.40;2.65;;;;;;;;;;4943471;28;20157;-57
2021/06/14 05:13:16;;;;;;;6.00;2.85;;;;;;;;;;4944887;28;20051;-59
2021/06/14 05:15:41;;;;;;;6.38;3.40;;;;;;;;;;4942760;28;20189;-58
2021/06/14 05:18:07;;;;;;;5.72;2.83;;;;;;;;;;4943614;28;20162;-60
2021/06/14 05:20:35;;;;;;;5.32;3.05;;;;;;;;;;4944187;28;20118;-59
2021/06/14 05:23:37;;;;;;;5.30;3.15;;;;;;;;;;4941506;28;20035;-58
2021/06/14 05:29:18;;;;;;;4.80;2.85;;;;;;;;;;4948268;28;20090;-60
2021/06/14 05:31:45;;;;;;;7.38;2.53;;;;;;;;;;4946903;28;20695;-60
2021/06/14 05:34:14;;;;;;;7.57;3.25;;;;;;;;;;4944738;28;20027;-59
2021/06/14 05:40:17;;;;;;;4.93;2.72;;;;;;;;;;4943900;28;20521;-60
2021/06/14 05:42:42;;;;;;;5.35;2.72;;;;;;;;;;4945736;28;20172;-60
2021/06/14 05:45:29;;;;;;;9.43;2.92;;;;;;;;;;4945495;28;20045;-59
2021/06/14 05:47:55;;;;;;;7.47;2.83;;;;;;;;;;4946797;28;20031;-60
2021/06/14 05:50:24;;;;;;;6.60;2.50;;;;;;;;;;4945662;28;20196;-59
2021/06/14 05:52:51;;;;;;;7.50;3.05;;;;;;;;;;4947595;28;20026;-61
2021/06/14 05:58:52;;;;;;;7.15;2.90;;;;;;;;;;4945160;28;20225;-61
2021/06/14 06:01:18;;;;;;;8.38;2.80;;;;;;;;;;4933523;28;20674;-60
2021/06/14 06:03:48;;;;;;;11.43;3.55;;;;;;;;;;4946763;28;20051;-59
2021/06/14 06:06:18;;;;;;;7.28;2.70;;;;;;;;;;4947582;28;20034;-60
2021/06/14 06:08:49;;;;;;;9.73;3.60;;;;;;;;;;4946937;28;20034;-60
2021/06/14 06:11:15;;;;;;;5.68;2.63;;;;;;;;;;4946900;28;20042;-60
2021/06/14 06:13:42;;;;;;;5.88;2.50;;;;;;;;;;4946656;28;20034;-60
2021/06/14 06:16:08;;;;;;;7.38;2.95;;;;;;;;;;4948463;28;20040;-60
2021/06/14 06:18:34;;;;;;;2.80;2.13;;;;;;;;;;4934284;28;20034;-59
2021/06/14 06:24:09;;;;;;;9.25;2.92;;;;;;;;;;4943517;28;20098;-59
2021/06/14 06:26:37;;;;;;;6.28;2.13;;;;;;;;;;4945783;28;20030;-59
2021/06/14 06:29:36;;;;;;;5.43;2.80;;;;;;;;;;4945614;28;20038;-58
2021/06/14 06:35:37;;;;;;;5.22;2.35;;;;;;;;;;4946538;28;20033;-59
2021/06/14 06:38:05;;;;;;;6.53;2.63;;;;;;;;;;4947463;28;20427;-58
2021/06/14 06:40:31;;;;;;;8.70;2.42;;;;;;;;;;4933370;28;20762;-58
2021/06/14 06:42:58;;;;;;;6.00;2.20;;;;;;;;;;4946421;28;20570;-59
2021/06/14 06:45:26;;;;;;;4.72;2.53;;;;;;;;;;4932158;28;20122;-59
2021/06/14 06:47:51;;;;;;;4.45;1.90;;;;;;;;;;4930932;28;20051;-59
2021/06/14 06:54:14;;;;;;;9.60;2.50;;;;;;;;;;4944735;28;20817;-59
2021/06/14 06:56:44;;;;;;;3.65;1.85;;;;;;;;;;4933388;28;20031;-59
2021/06/14 06:59:13;;;;;;;3.03;2.10;;;;;;;;;;4943908;28;20043;-59
2021/06/14 07:01:44;;;;;;;6.53;2.15;;;;;;;;;;4943859;28;20026;-59
2021/06/14 07:07:25;;;;;;;6.80;2.42;;;;;;;;;;4945868;28;20026;-60
2021/06/14 07:09:50;;;;;;;10.85;1.98;;;;;;;;;;4931100;28;20046;-59
2021/06/14 07:12:19;;;;;;;5.38;1.85;;;;;;;;;;4943947;28;20059;-59
2021/06/14 07:14:47;;;;;;;3.85;2.00;;;;;;;;;;4943802;28;20114;-59
2021/06/14 07:17:12;;;;;;;6.47;2.08;;;;;;;;;;4933849;28;20398;-59
2021/06/14 07:19:37;;;;;;;6.22;2.03;;;;;;;;;;4945946;28;20051;-59
2021/06/14 07:22:06;;;;;;;3.80;2.03;;;;;;;;;;4943557;28;20034;-59
2021/06/14 07:24:34;;;;;;;6.47;2.05;;;;;;;;;;4933065;28;20106;-59
2021/06/14 07:27:02;;;;;;;4.75;1.85;;;;;;;;;;4933393;28;20042;-59
2021/06/14 07:29:28;;;;;;;4.78;2.10;;;;;;;;;;4943209;28;20031;-59
2021/06/14 07:31:58;;;;;;;3.67;2.00;;;;;;;;;;4942676;28;20169;-59
2021/06/14 07:34:26;;;;;;;6.82;2.28;;;;;;;;;;4925364;28;20077;-59
2021/06/14 07:36:59;;;;;;;4.13;1.92;;;;;;;;;;4945038;28;20038;-59
2021/06/14 07:39:27;;;;;;;;;;;;;;;;;;4944794;28;20491;-59
2021/06/14 07:41:52;;;;;;;5.40;2.40;;;;;;;;;;4927446;28;19955;-59
2021/06/14 07:44:23;;;;;;;6.32;2.05;;;;;;;;;;4943017;28;20032;-59
2021/06/14 07:46:52;;;;;;;5.03;2.13;;;;;;;;;;4943244;28;20500;-59
2021/06/14 07:52:38;;;;;;;5.63;1.83;;;;;;;;;;4927100;28;20035;-58
2021/06/14 07:58:20;;;;;;;6.88;2.20;;;;;;;;;;4943306;28;20579;-58
2021/06/14 08:00:46;;;;;;;8.60;2.85;;;;;;;;;;4941589;28;20023;-58
2021/06/14 08:03:14;;;;;;;7.07;2.47;;;;;;;;;;4943937;28;20100;-60
2021/06/14 08:05:44;;;;;;;6.25;2.33;;;;;;;;;;4944570;28;21181;-60
2021/06/14 08:08:11;;;;;;;8.43;2.00;;;;;;;;;;4943906;28;20050;-60
2021/06/14 08:10:39;;;;;;;8.85;2.42;;;;;;;;;;4944858;28;20372;-59
2021/06/14 08:16:43;;;;;;;5.30;2.03;;;;;;;;;;4943416;28;20151;-59
2021/06/14 08:19:29;;;;;;;6.43;1.58;;;;;;;;;;4942758;28;20117;-59
2021/06/14 08:28:10;;;;;;;6.07;2.15;;;;;;;;;;4944609;28;20046;-60
2021/06/14 08:30:57;;;;;;;4.05;2.03;;;;;;;;;;4911907;28;20035;-59
2021/06/14 08:37:01;;;;;;;4.03;2.20;;;;;;;;;;4944023;28;22508;-59
2021/06/14 08:39:31;;;;;;;6.72;2.25;;;;;;;;;;4941416;28;20515;-58
2021/06/14 08:42:19;;;;;;;5.78;1.88;;;;;;;;;;4931685;28;20031;-59
2021/06/14 08:44:45;;;;;;;4.97;1.98;;;;;;;;;;4941836;28;20090;-58
2021/06/14 08:47:13;;;;;;;8.50;2.08;;;;;;;;;;4940091;28;20027;-59
2021/06/14 08:49:42;;;;;;;5.70;2.47;;;;;;;;;;4942004;28;20090;-60
2021/06/14 08:52:11;;;;;;;3.92;1.65;;;;;;;;;;4942893;28;20030;-60
2021/06/14 08:54:40;;;;;;;4.43;1.90;;;;;;;;;;4943872;28;20071;-59
2021/06/14 08:57:06;;;;;;;3.97;1.85;;;;;;;;;;4924384;28;20031;-59
2021/06/14 08:59:31;;;;;;;7.07;2.22;;;;;;;;;;4943256;28;20345;-58
2021/06/14 09:01:59;;;;;;;5.70;2.42;;;;;;;;;;4943586;28;20755;-59
2021/06/14 09:04:28;;;;;;;8.15;2.03;;;;;;;;;;4946128;28;20129;-58
2021/06/14 09:07:01;;;;;;;5.88;1.90;;;;;;;;;;4948791;28;20558;-59
2021/06/14 09:09:28;;;;;;;4.30;1.77;;;;;;;;;;4945943;28;20038;-59
2021/06/14 09:11:54;;;;;;;7.93;1.85;;;;;;;;;;4948924;28;20046;-60
2021/06/14 09:14:23;;;;;;;11.60;2.50;;;;;;;;;;4947629;28;20077;-60
2021/06/14 09:16:55;;;;;;;6.70;2.10;;;;;;;;;;4946576;28;20704;-59
2021/06/14 09:19:30;;;;;;;8.32;2.40;;;;;;;;;;4945808;28;20049;-58
2021/06/14 09:22:09;;;;;;;6.85;2.28;;;;;;;;;;4929891;28;20224;-59
2021/06/14 09:24:37;;;;;;;11.68;2.78;;;;;;;;;;4947688;28;20029;-60
2021/06/14 09:30:45;;;;;;;4.65;2.13;;;;;;;;;;4947524;28;20134;-59
2021/06/14 09:33:26;;;;;;;5.40;2.72;;;;;;;;;;4946897;28;20498;-59
2021/06/14 09:36:04;;;;;;;6.80;2.13;;;;;;;;;;4946794;28;20030;-59
2021/06/14 09:38:54;;;;;;;6.13;2.53;;;;;;;;;;4947348;28;21058;-60
2021/06/14 09:41:24;;;;;;;7.32;2.05;;;;;;;;;;4946594;28;20027;-59
2021/06/14 09:43:52;;;;;;;7.85;1.95;;;;;;;;;;4947464;28;20031;-59
2021/06/14 09:46:30;;;;;;;9.18;2.40;;;;;;;;;;4947183;28;20050;-60
2021/06/14 09:49:00;;;;;;;5.93;1.70;;;;;;;;;;4929094;28;20050;-59
2021/06/14 09:51:26;;;;;;;7.82;1.80;;;;;;;;;;4947390;28;20042;-60
2021/06/14 09:53:55;;;;;;;5.18;2.17;;;;;;;;;;4943999;28;20035;-60
2021/06/14 09:56:23;;;;;;;4.78;2.00;;;;;;;;;;4946864;28;20035;-59
2021/06/14 09:59:23;;;;;;;8.07;2.55;;;;;;;;;;4946318;28;20030;-59
2021/06/14 10:01:51;;;;;;;8.50;2.30;;;;;;;;;;4944441;28;20435;-59
2021/06/14 10:04:28;;;;;;;8.23;1.90;;;;;;;;;;4912799;28;20088;-59
2021/06/14 10:06:58;;;;;;;5.85;2.10;;;;;;;;;;4946628;28;20035;-59
2021/06/14 10:09:24;;;;;;;4.30;1.92;;;;;;;;;;4946326;28;20134;-58
2021/06/14 10:11:51;;;;;;;3.25;1.52;;;;;;;;;;4944994;28;20031;-58
2021/06/14 10:14:23;;;;;;;5.68;1.80;;;;;;;;;;4928446;28;20030;-58
2021/06/14 10:16:53;;;;;;;3.65;1.70;;;;;;;;;;4945698;28;20104;-58
2021/06/14 10:19:56;;;;;;;11.48;2.47;;;;;;;;;;4943441;28;20035;-58
2021/06/14 10:22:24;;;;;;;2.13;1.50;;;;;;;;;;4946906;28;20039;-60
2021/06/14 10:24:52;;;;;;;4.93;2.22;;;;;;;;;;4944647;28;20186;-63
2021/06/14 10:30:56;;;;;;;5.22;1.70;;;;;;;;;;4946203;28;20538;-60
2021/06/14 10:33:26;;;;;;;7.28;1.80;;;;;;;;;;4945083;28;20023;-58
2021/06/14 10:35:54;;;;;;;5.68;2.15;;;;;;;;;;4942959;28;20030;-59
2021/06/14 10:38:23;;;;;;;5.30;1.85;;;;;;;;;;4943741;28;20031;-59
2021/06/14 10:40:50;;;;;;;4.22;1.40;;;;;;;;;;4945762;28;20097;-58
2021/06/14 10:43:24;;;;;;;6.60;1.85;;;;;;;;;;4943984;28;20079;-59
2021/06/14 10:45:55;;;;;;;2.60;1.58;;;;;;;;;;4944353;28;20027;-59
2021/06/14 10:48:33;;;;;;;6.32;1.92;;;;;;;;;;4942506;28;20216;-59
2021/06/14 10:54:44;;;;;;;3.63;1.85;;;;;;;;;;4944603;28;20166;-58
2021/06/14 10:57:11;;;;;;;3.78;1.52;;;;;;;;;;4943198;28;20042;-58
2021/06/14 11:03:16;;;;;;;4.20;2.00;;;;;;;;;;4943507;28;20165;-58
2021/06/14 11:05:43;;;;;;;4.32;1.55;;;;;;;;;;4942717;28;20051;-58
2021/06/14 11:08:24;;;;;;;3.92;1.70;;;;;;;;;;4942414;28;20123;-58
2021/06/14 11:10:49;;;;;;;4.05;1.70;;;;;;;;;;4944677;28;20031;-57
2021/06/14 11:13:31;;;;;;;7.30;1.90;;;;;;;;;;4943974;28;20031;-59
2021/06/14 11:16:01;;;;;;;4.60;1.75;;;;;;;;;;4945908;28;20027;-57
2021/06/14 11:21:36;;;;;;;5.22;1.83;;;;;;;;;;4945125;28;20036;-58
2021/06/14 11:24:05;;;;;;;3.28;1.70;;;;;;;;;;4943251;28;20717;-58
2021/06/14 11:26:31;;;;;;;3.28;1.90;;;;;;;;;;4928411;28;21167;-58
2021/06/14 11:28:59;;;;;;;4.95;1.98;;;;;;;;;;4944164;28;20038;-59
2021/06/14 11:31:28;;;;;;;5.53;2.10;;;;;;;;;;4943571;28;20030;-58
2021/06/14 11:34:01;;;;;;;5.95;2.50;;;;;;;;;;4943154;28;20030;-58
2021/06/14 11:36:31;;;;;;;3.92;2.08;;;;;;;;;;4944843;28;20041;-58
2021/06/14 11:39:00;;;;;;;10.55;2.40;;;;;;;;;;4944697;28;20031;-58
2021/06/14 11:41:25;;;;;;;6.43;2.30;;;;;;;;;;4932955;28;20034;-58
2021/06/14 11:44:12;;;;;;;3.28;1.95;;;;;;;;;;4944634;28;20542;-58
2021/06/14 11:46:41;;;;;;;5.22;2.05;;;;;;;;;;4940740;28;22110;-58
2021/06/14 11:53:00;;;;;;;8.82;2.55;;;;;;;;;;4944690;28;20155;-58
2021/06/14 11:55:31;;;;;;;5.55;2.10;;;;;;;;;;4945872;28;21967;-59
2021/06/14 11:58:01;;;;;;;5.32;2.33;;;;;;;;;;4944711;28;20074;-58
2021/06/14 12:00:43;;;;;;;4.10;2.10;;;;;;;;;;4942933;28;20053;-59
2021/06/14 12:06:52;;;;;;;5.80;3.38;;;;;;;;;;4944061;28;20580;-58
2021/06/14 12:09:21;;;;;;;6.93;3.15;;;;;;;;;;4943730;28;20421;-58
2021/06/14 12:11:54;;;;;;;4.70;2.30;;;;;;;;;;4929038;28;20041;-58
2021/06/14 12:17:56;;;;;;;5.43;2.58;;;;;;;;;;4942982;28;20061;-58
2021/06/14 12:23:32;;;;;;;4.38;3.10;;;;;;;;;;4944190;28;20516;-58
2021/06/14 12:26:04;;;;;;;6.45;2.90;;;;;;;;;;4926799;28;20067;-57
2021/06/14 12:28:32;;;;;;;5.72;3.20;;;;;;;;;;4944247;28;20495;-58
2021/06/14 12:31:10;;;;;;;5.88;2.75;;;;;;;;;;4925922;28;20034;-58
2021/06/14 12:33:37;;;;;;;5.78;2.63;;;;;;;;;;4942240;28;20022;-58
2021/06/14 12:36:03;;;;;;;6.05;3.33;;;;;;;;;;4944612;28;20034;-57
2021/06/14 12:38:30;;;;;;;3.97;2.80;;;;;;;;;;4944541;28;20081;-58
2021/06/14 12:40:58;;;;;;;4.97;2.40;;;;;;;;;;4948242;28;20137;-59
2021/06/14 12:43:24;;;;;;;9.10;3.60;;;;;;;;;;4947149;28;20089;-58
2021/06/14 12:45:54;;;;;;;4.50;2.53;;;;;;;;;;4946700;28;22193;-59
2021/06/14 12:48:43;;;;;;;6.43;2.95;;;;;;;;;;4945660;28;20035;-59
2021/06/14 12:51:09;;;;;;;6.57;2.47;;;;;;;;;;4907801;29;20638;-59
2021/06/14 12:53:37;;;;;;;5.65;1.98;;;;;;;;;;4924489;28;20037;-59
2021/06/14 12:56:05;;;;;;;4.32;2.08;;;;;;;;;;4921885;28;20067;-57
2021/06/14 12:58:46;;;;;;;3.72;2.00;;;;;;;;;;4921994;28;20040;-57
2021/06/14 13:01:20;;;;;;;7.82;2.47;;;;;;;;;;4909797;29;20036;-58
2021/06/14 13:03:48;;;;;;;3.53;2.05;;;;;;;;;;4920231;28;20099;-56
2021/06/14 13:06:29;;;;;;;6.63;2.67;;;;;;;;;;4910732;29;20057;-58
2021/06/14 13:09:20;;;;;;;5.90;1.77;;;;;;;;;;4923420;28;20032;-57
2021/06/14 13:11:46;;;;;;;4.18;2.10;;;;;;;;;;4922727;28;20032;-59
2021/06/14 13:14:12;;;;;;;6.10;2.28;;;;;;;;;;4909819;29;20028;-58
2021/06/14 13:16:45;;;;;;;5.00;2.22;;;;;;;;;;4912547;29;20046;-55
2021/06/14 13:19:13;;;;;;;7.15;2.35;;;;;;;;;;4922447;28;20044;-58
2021/06/14 13:21:43;;;;;;;4.95;2.17;;;;;;;;;;4912576;29;20039;-59
2021/06/14 13:24:14;;;;;;;5.90;1.90;;;;;;;;;;4907970;29;20110;-59
2021/06/14 13:26:51;;;;;;;5.07;2.25;;;;;;;;;;4912558;29;20031;-59
2021/06/14 13:29:25;;;;;;;3.92;2.40;;;;;;;;;;4908828;29;20039;-57
2021/06/14 13:31:50;;;;;;;3.90;2.88;;;;;;;;;;4912783;29;20038;-57
2021/06/14 13:34:27;;;;;;;4.88;2.20;;;;;;;;;;4920670;28;20122;-57
2021/06/14 13:36:54;;;;;;;3.15;2.15;;;;;;;;;;4906654;28;20087;-58
2021/06/14 13:39:27;;;;;;;4.82;2.10;;;;;;;;;;4923000;28;20624;-56
2021/06/14 13:41:59;;;;;;;5.25;2.20;;;;;;;;;;4917903;28;20043;-58
2021/06/14 13:44:24;;;;;;;4.25;2.10;;;;;;;;;;4908638;29;21070;-59
2021/06/14 13:46:55;;;;;;;5.22;2.20;;;;;;;;;;4917530;28;20158;-58
2021/06/14 13:49:29;;;;;;;5.38;1.90;;;;;;;;;;4925223;28;21037;-59
2021/06/14 13:52:06;;;;;;;5.60;2.17;;;;;;;;;;4940366;28;20198;-58
2021/06/14 13:58:06;;;;;;;2.17;1.52;;;;;;;;;;4925434;28;22000;-58
2021/06/14 14:00:37;;;;;;;2.83;1.55;;;;;;;;;;4926539;28;20039;-58
2021/06/14 14:03:02;;;;;;;3.25;1.60;;;;;;;;;;4924952;28;20051;-57
2021/06/14 14:08:39;;;;;;;5.65;1.75;;;;;;;;;;4926449;28;20040;-58
2021/06/14 14:11:23;;;;;;;5.43;1.35;;;;;;;;;;4941137;28;20782;-57
2021/06/14 14:14:01;;;;;;;2.25;1.30;;;;;;;;;;4925534;28;20113;-59
2021/06/14 14:16:29;;;;;;;2.38;1.23;;;;;;;;;;4925237;28;20046;-59
2021/06/14 14:18:57;;;;;;;1.77;1.05;;;;;;;;;;4924196;28;20039;-58
2021/06/14 14:21:25;;;;;;;3.38;2.13;;;;;;;;;;4924316;28;20045;-58
2021/06/14 14:27:10;;;;;;;4.95;1.88;;;;;;;;;;4926383;28;20058;-57
2021/06/14 14:33:17;;;;;;;3.78;1.60;;;;;;;;;;4926710;28;20037;-57
2021/06/14 14:39:02;;;;;;;5.32;1.80;;;;;;;;;;4923283;28;20864;-56
2021/06/14 14:44:54;;;;;;;6.10;1.92;;;;;;;;;;4924625;28;20042;-58
2021/06/14 14:47:38;;;;;;;1.23;1.10;;;;;;;;;;4922250;28;20081;-58
2021/06/14 14:50:22;;;;;;;4.75;1.35;;;;;;;;;;4935507;28;20738;-58
2021/06/14 14:53:08;;;;;;;1.60;1.40;;;;;;;;;;4924967;28;20106;-58
2021/06/14 14:55:53;;;;;;;1.60;1.50;;;;;;;;;;4936055;28;20145;-56
2021/06/14 14:58:37;;;;;;;4.30;1.60;;;;;;;;;;4925954;28;20521;-58
2021/06/14 15:01:21;;;;;;;2.92;1.50;;;;;;;;;;4926524;28;20095;-57
2021/06/14 15:04:06;;;;;;;8.57;1.65;;;;;;;;;;4924841;28;20049;-58
2021/06/14 15:06:50;;;;;;;4.65;1.98;;;;;;;;;;4926893;28;20248;-58
2021/06/14 15:09:39;;;;;;;5.13;1.30;;;;;;;;;;4926605;28;20050;-58
2021/06/14 15:12:23;;;;;;;2.63;1.55;;;;;;;;;;4930663;28;20061;-58
2021/06/14 15:15:09;;;;;;;2.58;1.05;;;;;;;;;;4928037;28;20054;-58
2021/06/14 15:17:53;;;;;;;3.22;1.55;;;;;;;;;;4937490;28;20065;-58
2021/06/14 15:20:40;;;;;;;4.25;1.70;;;;;;;;;;4925318;28;20162;-58
2021/06/14 15:23:24;;;;;;;2.38;1.73;;;;;;;;;;4937512;28;20137;-57
2021/06/14 15:26:11;;;;;;;3.15;1.80;;;;;;;;;;4926301;28;22071;-59
2021/06/14 15:28:55;;;;;;;4.05;2.13;;;;;;;;;;4929120;28;20083;-58
2021/06/14 15:31:39;;;;;;;4.65;2.55;;;;;;;;;;4936306;28;20046;-57
2021/06/14 15:34:23;;;;;;;;;;;;;;;;;;4926697;28;20054;-58
2021/06/14 15:37:11;;;;;;;10.00;5.10;;;;;;;;;;4926076;28;19934;-58
2021/06/14 15:39:57;;;;;;;10.77;5.43;;;;;;;;;;4925635;28;20710;-58
2021/06/14 15:42:42;;;;;;;11.80;5.68;;;;;;;;;;4924396;28;20110;-56
2021/06/14 15:45:27;;;;;;;11.77;6.07;;;;;;;;;;4924931;28;20053;-57
2021/06/14 15:48:14;;;;;;;9.05;5.03;;;;;;;;;;4924402;28;20049;-57
2021/06/14 15:51:01;;;;;;;11.38;5.97;;;;;;;;;;4945241;28;20066;-57
2021/06/14 15:53:50;;;;;;;12.45;5.00;;;;;;;;;;4944342;28;20033;-57
2021/06/14 15:56:36;;;;;;;18.38;6.43;;;;;;;;;;4944928;28;22249;-57
2021/06/14 15:59:23;;;;;;;10.68;5.47;;;;;;;;;;4946538;28;20116;-55
2021/06/14 16:02:07;;;;;;;10.68;4.60;;;;;;;;;;4944025;28;20709;-58
2021/06/14 16:04:54;;;;;;;15.35;5.88;;;;;;;;;;4931677;28;20120;-57
2021/06/14 16:07:38;;;;;;;10.05;5.60;;;;;;;;;;4945029;28;20053;-58
2021/06/14 16:10:22;;;;;;;10.00;4.38;;;;;;;;;;4945427;28;20177;-57
2021/06/14 16:13:07;;;;;;;12.63;5.10;;;;;;;;;;4943687;28;20041;-57
2021/06/14 16:15:52;;;;;;;8.05;5.03;;;;;;;;;;4945261;28;20097;-57
2021/06/14 16:18:36;;;;;;;8.80;4.60;;;;;;;;;;4941571;28;20062;-58
2021/06/14 16:21:20;;;;;;;6.07;4.07;;;;;;;;;;4944048;28;20053;-58
2021/06/14 16:24:05;;;;;;;8.02;4.75;;;;;;;;;;4945324;28;20146;-58
2021/06/14 16:26:51;;;;;;;6.82;4.55;;;;;;;;;;4942788;28;20883;-57
2021/06/14 16:29:36;;;;;;;8.13;4.07;;;;;;;;;;4944095;28;20096;-58
2021/06/14 16:32:20;;;;;;;7.80;4.05;;;;;;;;;;4930110;28;20069;-54
2021/06/14 16:35:09;;;;;;;8.18;4.25;;;;;;;;;;4944799;28;20054;-58
2021/06/14 16:37:54;;;;;;;6.88;3.92;;;;;;;;;;4940386;28;22041;-58
2021/06/14 16:40:43;;;;;;;4.82;3.10;;;;;;;;;;4938656;28;20085;-56
2021/06/14 16:43:28;;;;;;;7.90;3.95;;;;;;;;;;4943864;28;20054;-58
2021/06/14 16:45:58;;;;;;;8.20;3.50;;;;;;;;;;4945334;28;20141;-58
2021/06/14 16:48:26;;;;;;;5.57;3.28;;;;;;;;;;4941318;28;20104;-57
2021/06/14 16:50:55;;;;;;;4.88;3.30;;;;;;;;;;4939323;28;20059;-57
2021/06/14 16:53:23;;;;;;;6.60;3.67;;;;;;;;;;4939324;28;20051;-57
2021/06/14 16:55:51;;;;;;;5.60;3.50;;;;;;;;;;4924235;28;20078;-57
2021/06/14 16:58:19;;;;;;;6.13;3.95;;;;;;;;;;4939238;28;20453;-57
2021/06/14 17:00:45;;;;;;;16.08;4.45;;;;;;;;;;4929252;28;20114;-57
2021/06/14 17:03:11;;;;;;;10.02;4.85;;;;;;;;;;4923923;28;20134;-57
2021/06/14 17:05:36;;;;;;;12.10;4.72;;;;;;;;;;4936362;28;20035;-56
2021/06/14 17:08:04;;;;;;;10.48;4.55;;;;;;;;;;4924992;28;20039;-58
2021/06/14 17:10:30;;;;;;;8.95;4.18;;;;;;;;;;4937177;28;20994;-58
2021/06/14 17:12:58;;;;;;;11.35;5.20;;;;;;;;;;4921210;28;20040;-58